Time;durP1;ratioP1;P1;durP2;ratioP2;P2;SDS_P1;SDS_P2;PMS_P1;PMS_P2;Temp;Humidity;BMP_temperature;BMP_pressure;BME280_temperature;BME280_humidity;BME280_pressure;Samples;Min_cycle;Max_cycle;Signal;HPM_P1;HPM_P2
2022/11/23 00:01:22;;;;;;;;;6.00;6.00;;;;;8.60;70.24;99367.19;4918429;28;45438;-60
2022/11/23 00:03:49;;;;;;;;;6.00;5.40;;;;;8.58;70.33;99367.41;4918049;28;46188;-61
2022/11/23 00:06:15;;;;;;;;;7.60;5.60;;;;;8.49;69.55;99353.22;4918134;28;45688;-62
2022/11/23 00:08:40;;;;;;;;;3.50;3.50;;;;;8.48;70.43;99358.94;4918325;28;45414;-60
2022/11/23 00:11:06;;;;;;;;;2.50;1.00;;;;;8.24;69.85;99313.19;4918516;28;45544;-62
2022/11/23 00:13:34;;;;;;;;;7.25;3.00;;;;;8.43;70.65;99347.84;4917639;28;46655;-62
2022/11/23 00:16:03;;;;;;;;;8.00;3.20;;;;;8.40;70.62;99341.75;4917729;28;45589;-61
2022/11/23 00:18:29;;;;;;;;;4.80;3.00;;;;;8.41;70.04;99339.88;4900705;28;45353;-61
2022/11/23 00:20:54;;;;;;;;;11.00;6.25;;;;;8.39;70.42;99342.00;4918230;28;45287;-61
2022/11/23 00:23:20;;;;;;;;;6.50;4.00;;;;;8.27;71.24;99333.75;4879660;29;46375;-61
2022/11/23 00:25:45;;;;;;;;;9.75;6.25;;;;;8.13;71.37;99327.63;4881411;29;45466;-61
2022/11/23 00:28:11;;;;;;;;;8.00;8.00;;;;;8.23;71.91;99347.03;4898501;29;45334;-61
2022/11/23 00:30:37;;;;;;;;;6.60;5.60;;;;;8.18;71.49;99341.44;4898910;29;45648;-61
2022/11/23 00:33:02;;;;;;;;;6.00;4.00;;;;;8.22;71.61;99347.28;4851161;28;47754;-61
2022/11/23 00:35:28;;;;;;;;;6.00;2.50;;;;;7.60;71.29;99251.56;4898445;29;45435;-61
2022/11/23 00:37:53;;;;;;;;;7.25;3.50;;;;;8.23;71.62;99340.75;4898428;29;45380;-60
2022/11/23 00:40:19;;;;;;;;;8.25;6.75;;;;;8.19;71.59;99329.44;4899268;29;45424;-61
2022/11/23 00:42:44;;;;;;;;;5.50;5.00;;;;;8.21;71.48;99332.78;4898113;29;45566;-62
2022/11/23 00:45:10;;;;;;;;;6.50;3.50;;;;;8.32;70.88;99341.28;4898389;29;45429;-63
2022/11/23 00:47:35;;;;;;;;;7.50;3.50;;;;;8.33;71.02;99332.81;4898339;29;45385;-61
2022/11/23 00:50:01;;;;;;;;;3.00;3.00;;;;;8.28;70.89;99338.16;4898563;29;45665;-61
2022/11/23 00:52:27;;;;;;;;;5.50;3.00;;;;;7.74;71.42;99235.03;4898136;29;46855;-61
2022/11/23 00:54:52;;;;;;;;;11.50;7.00;;;;;8.36;71.12;99324.16;4898030;29;45360;-61
2022/11/23 00:57:18;;;;;;;;;5.00;3.25;;;;;7.98;71.56;99263.31;4898453;29;45417;-61
2022/11/23 00:59:43;;;;;;;;;3.50;2.75;;;;;8.20;71.01;99294.72;4881567;29;45495;-61
2022/11/23 01:02:08;;;;;;;;;6.75;6.00;;;;;8.36;70.54;99320.59;4897630;29;45657;-61
2022/11/23 01:04:34;;;;;;;;;5.00;4.00;;;;;8.36;71.15;99323.31;4898420;29;45296;-60
2022/11/23 01:07:00;;;;;;;;;4.75;4.50;;;;;8.34;71.35;99323.56;4881767;29;45769;-60
2022/11/23 01:09:25;;;;;;;;;5.00;5.00;;;;;8.30;71.41;99316.88;4884824;29;45541;-60
2022/11/23 01:11:54;;;;;;;;;5.50;5.50;;;;;8.30;71.44;99326.97;4901432;29;45697;-61
2022/11/23 01:14:20;;;;;;;;;7.00;3.60;;;;;7.97;71.82;99288.97;4901523;28;45495;-61
2022/11/23 01:16:45;;;;;;;;;7.20;4.40;;;;;8.17;72.01;99323.34;4901875;28;45358;-61
2022/11/23 01:19:14;;;;;;;;;6.25;5.25;;;;;8.20;72.00;99317.44;4884333;29;45419;-61
2022/11/23 01:21:40;;;;;;;;;6.40;4.40;;;;;8.18;71.95;99302.34;4901421;29;46849;-61
2022/11/23 01:24:10;;;;;;;;;6.50;3.25;;;;;8.21;71.97;99308.19;4878869;28;45328;-61
2022/11/23 01:26:36;;;;;;;;;4.20;3.80;;;;;8.13;72.30;99294.84;4920592;28;45356;-61
2022/11/23 01:29:01;;;;;;;;;7.00;4.00;;;;;8.17;72.21;99297.94;4920747;28;45358;-61
2022/11/23 01:31:27;;;;;;;;;6.25;4.50;;;;;8.11;71.62;99291.50;4906259;28;46022;-60
2022/11/23 01:33:57;;;;;;;;;8.25;6.50;;;;;8.08;71.66;99279.16;4884871;28;45458;-60
2022/11/23 01:36:25;;;;;;;;;7.20;7.20;;;;;8.11;72.18;99281.41;4900989;29;45377;-60
2022/11/23 01:38:50;;;;;;;;;3.00;3.00;;;;;8.07;72.13;99285.66;4901137;29;45279;-60
2022/11/23 01:41:18;;;;;;;;;8.25;7.00;;;;;8.00;72.76;99280.28;4884126;29;45749;-60
2022/11/23 01:43:43;;;;;;;;;11.20;6.00;;;;;8.00;72.98;99285.75;4883843;29;45542;-60
2022/11/23 01:46:09;;;;;;;;;8.00;5.50;;;;;7.97;72.29;99274.44;4901326;29;45244;-62
2022/11/23 01:48:54;;;;;;;;;8.00;8.00;;;;;7.75;72.48;99247.63;4901406;29;45304;-61
2022/11/23 01:51:22;;;;;;;;;8.00;7.00;;;;;7.94;72.68;99278.47;4884814;29;45271;-61
2022/11/23 01:53:48;;;;;;;;;8.20;6.40;;;;;7.83;73.09;99265.59;4883790;29;45424;-62
2022/11/23 01:56:16;;;;;;;;;7.80;3.20;;;;;7.82;73.54;99270.25;4900992;29;45366;-61
2022/11/23 01:58:42;;;;;;;;;8.80;6.20;;;;;7.83;73.22;99271.91;4900964;29;45376;-61
2022/11/23 02:01:08;;;;;;;;;5.40;5.20;;;;;7.83;73.13;99271.06;4884132;29;45457;-61
2022/11/23 02:03:33;;;;;;;;;8.25;5.50;;;;;7.81;72.92;99268.56;4883562;29;45380;-61
2022/11/23 02:06:00;;;;;;;;;9.25;6.75;;;;;7.81;73.20;99281.38;4901659;28;45336;-61
2022/11/23 02:08:26;;;;;;;;;6.80;6.80;;;;;7.79;73.78;99278.06;4884240;29;45400;-62
2022/11/23 02:10:52;;;;;;;;;7.20;4.60;;;;;7.51;73.40;99216.63;4900695;29;46820;-61
2022/11/23 02:13:17;;;;;;;;;7.00;6.00;;;;;7.83;73.50;99268.31;4900523;29;45298;-62
2022/11/23 02:15:43;;;;;;;;;4.00;4.00;;;;;7.73;73.89;99253.31;4883555;29;45342;-61
2022/11/23 02:18:14;;;;;;;;;7.50;3.75;;;;;7.73;73.86;99258.78;4900333;29;45514;-61
2022/11/23 02:20:40;;;;;;;;;7.00;6.00;;;;;7.63;74.12;99231.19;4882689;29;46944;-62
2022/11/23 02:23:20;;;;;;;;;6.00;4.75;;;;;7.79;74.05;99261.66;4883554;29;45874;-61
2022/11/23 02:25:46;;;;;;;;;9.60;6.80;;;;;7.78;73.56;99265.47;4881707;29;45297;-61
2022/11/23 02:28:22;;;;;;;;;6.00;3.00;;;;;7.70;74.27;99247.50;4881903;29;45149;-61
2022/11/23 02:30:48;;;;;;;;;2.80;2.80;;;;;7.80;74.27;99257.88;4849939;29;45449;-61
2022/11/23 02:33:14;;;;;;;;;7.20;5.20;;;;;7.79;74.40;99258.94;4851319;28;45419;-60
2022/11/23 02:35:53;;;;;;;;;6.50;5.50;;;;;7.56;73.97;99217.63;4900525;29;45263;-59
2022/11/23 02:38:19;;;;;;;;;6.20;6.20;;;;;7.80;73.85;99249.69;4867927;29;45528;-61
2022/11/23 02:40:44;;;;;;;;;7.00;3.75;;;;;7.82;74.53;99250.28;4883277;29;45597;-60
2022/11/23 02:43:10;;;;;;;;;8.00;4.00;;;;;7.83;74.49;99247.31;4900316;28;45433;-60
2022/11/23 02:45:37;;;;;;;;;9.00;7.75;;;;;7.84;74.10;99231.75;4900552;28;45360;-61
2022/11/23 02:48:03;;;;;;;;;12.60;8.40;;;;;7.88;74.58;99230.22;4883531;29;45384;-61
2022/11/23 02:50:29;;;;;;;;;8.00;7.00;;;;;7.82;74.41;99223.81;4883694;29;46485;-61
2022/11/23 02:52:55;;;;;;;;;7.75;6.00;;;;;7.81;74.22;99224.03;4883228;29;45469;-60
2022/11/23 02:55:20;;;;;;;;;12.00;8.00;;;;;7.91;74.30;99231.66;4882781;29;45322;-61
2022/11/23 02:57:46;;;;;;;;;9.00;8.00;;;;;7.89;74.45;99226.44;4900807;29;45395;-61
2022/11/23 03:00:12;;;;;;;;;6.25;3.75;;;;;7.92;74.50;99225.13;4900089;29;45320;-61
2022/11/23 03:02:37;;;;;;;;;11.50;7.00;;;;;7.92;74.54;99222.41;4899987;28;45423;-61
2022/11/23 03:05:03;;;;;;;;;6.75;4.50;;;;;7.92;74.49;99211.47;4900108;29;45341;-60
2022/11/23 03:07:28;;;;;;;;;8.50;6.50;;;;;7.89;74.65;99203.75;4900371;29;45483;-59
2022/11/23 03:09:54;;;;;;;;;11.75;7.75;;;;;7.86;74.27;99199.59;4899871;29;46417;-59
2022/11/23 03:12:19;;;;;;;;;6.75;6.75;;;;;7.91;74.42;99207.06;4883158;29;45458;-60
2022/11/23 03:14:45;;;;;;;;;6.25;6.25;;;;;7.88;74.83;99204.81;4883050;29;45387;-61
2022/11/23 03:17:10;;;;;;;;;11.50;9.00;;;;;7.84;74.23;99194.34;4900225;29;45295;-60
2022/11/23 03:19:36;;;;;;;;;8.50;7.00;;;;;7.08;74.64;99060.97;4899563;29;45531;-59
2022/11/23 03:22:02;;;;;;;;;11.00;6.00;;;;;7.89;74.28;99201.84;4882841;29;45424;-60
2022/11/23 03:24:28;;;;;;;;;8.40;6.80;;;;;7.87;74.26;99182.13;4908639;28;45332;-61
2022/11/23 03:26:53;;;;;;;;;6.25;5.75;;;;;7.92;74.70;99190.47;4886278;28;45323;-61
2022/11/23 03:29:19;;;;;;;;;6.00;6.00;;;;;7.90;74.35;99198.03;4918528;28;46634;-62
2022/11/23 03:31:44;;;;;;;;;11.00;7.75;;;;;7.89;74.45;99188.19;4918162;28;45302;-61
2022/11/23 03:34:10;;;;;;;;;6.50;4.25;;;;;7.94;74.78;99193.78;4883615;28;45462;-60
2022/11/23 03:36:35;;;;;;;;;4.00;4.00;;;;;7.97;74.88;99196.06;4900098;29;45572;-60
2022/11/23 03:39:01;;;;;;;;;13.75;10.00;;;;;7.96;74.37;99194.38;4899627;29;46126;-61
2022/11/23 03:41:26;;;;;;;;;2.75;2.75;;;;;7.92;75.07;99195.94;4899939;29;45363;-60
2022/11/23 03:43:52;;;;;;;;;7.00;6.00;;;;;7.88;74.97;99169.31;4899829;28;45731;-61
2022/11/23 03:46:17;;;;;;;;;12.00;7.25;;;;;7.89;75.32;99171.78;4900087;29;45431;-62
2022/11/23 03:48:43;;;;;;;;;10.50;7.00;;;;;7.90;74.48;99181.66;4899359;29;46921;-59
2022/11/23 03:51:08;;;;;;;;;11.00;2.00;;;;;7.91;75.13;99183.34;4900007;29;45341;-61
2022/11/23 03:53:34;;;;;;;;;11.50;7.25;;;;;7.91;75.31;99179.75;4899377;29;45295;-61
2022/11/23 03:55:59;;;;;;;;;9.50;6.75;;;;;7.76;75.40;99167.38;4899584;28;45874;-61
2022/11/23 03:58:25;;;;;;;;;8.00;7.00;;;;;7.87;75.31;99179.38;4899268;29;46049;-60
2022/11/23 04:00:50;;;;;;;;;8.75;7.25;;;;;7.88;75.38;99178.31;4882529;29;45395;-61
2022/11/23 04:03:16;;;;;;;;;8.75;7.25;;;;;7.88;75.18;99177.50;4882157;29;45367;-62
2022/11/23 04:05:41;;;;;;;;;9.50;8.00;;;;;7.80;75.71;99174.00;4882604;29;45319;-61
2022/11/23 04:08:08;;;;;;;;;10.50;7.75;;;;;7.88;75.38;99172.03;4866541;29;45452;-62
2022/11/23 04:10:33;;;;;;;;;10.20;6.00;;;;;7.88;75.21;99178.31;4898948;29;45295;-61
2022/11/23 04:12:59;;;;;;;;;8.50;8.00;;;;;7.86;75.73;99172.25;4899291;29;45370;-61
2022/11/23 04:15:24;;;;;;;;;10.75;9.00;;;;;7.90;75.42;99167.97;4899261;28;45241;-61
2022/11/23 04:17:50;;;;;;;;;11.25;7.00;;;;;7.69;75.29;99128.41;4899118;29;46138;-61
2022/11/23 04:20:15;;;;;;;;;11.50;9.00;;;;;7.96;75.29;99161.59;4898723;29;45265;-61
2022/11/23 04:22:41;;;;;;;;;9.00;6.75;;;;;8.02;75.72;99164.47;4898983;29;45369;-61
2022/11/23 04:25:08;;;;;;;;;8.00;6.00;;;;;7.90;75.52;99146.13;4911516;28;45284;-61
2022/11/23 04:27:33;;;;;;;;;9.00;7.40;;;;;8.04;75.58;99165.91;4884778;28;47534;-62
2022/11/23 04:29:59;;;;;;;;;8.75;7.25;;;;;8.06;75.31;99162.94;4917663;28;45402;-61
2022/11/23 04:32:24;;;;;;;;;7.75;5.50;;;;;8.02;76.17;99164.47;4918033;28;45374;-62
2022/11/23 04:34:50;;;;;;;;;11.00;7.25;;;;;7.60;75.73;99085.00;4871953;28;45578;-60
2022/11/23 04:37:15;;;;;;;;;8.25;8.25;;;;;8.03;75.44;99141.53;4878645;29;46361;-62
2022/11/23 04:39:41;;;;;;;;;5.50;3.50;;;;;8.04;75.96;99145.94;4862732;29;45294;-60
2022/11/23 04:42:07;;;;;;;;;8.50;8.50;;;;;7.93;76.24;99134.75;4879299;29;45292;-60
2022/11/23 04:44:33;;;;;;;;;6.60;6.60;;;;;7.95;76.12;99143.53;4879985;29;45613;-61
2022/11/23 04:46:59;;;;;;;;;11.75;8.25;;;;;7.75;76.22;99113.81;4880178;29;46491;-60
2022/11/23 04:49:24;;;;;;;;;12.25;8.25;;;;;7.88;77.06;99145.53;4863062;29;45436;-60
2022/11/23 04:51:50;;;;;;;;;14.00;9.00;;;;;7.90;76.42;99142.59;4862869;29;45332;-60
2022/11/23 04:54:15;;;;;;;;;9.25;8.50;;;;;7.87;77.03;99138.41;4880017;29;45351;-60
2022/11/23 04:56:41;;;;;;;;;7.25;6.75;;;;;7.93;76.99;99136.63;4879371;29;45792;-61
2022/11/23 04:59:06;;;;;;;;;8.25;7.00;;;;;7.92;76.74;99130.34;4879714;29;45802;-61
2022/11/23 05:01:32;;;;;;;;;11.25;8.00;;;;;7.91;77.60;99131.44;4879759;29;45403;-61
2022/11/23 05:03:57;;;;;;;;;9.75;7.00;;;;;7.87;77.63;99132.94;4879861;29;45497;-60
2022/11/23 05:06:23;;;;;;;;;8.75;7.00;;;;;7.90;77.97;99123.47;4862765;29;48186;-60
2022/11/23 05:08:48;;;;;;;;;8.00;8.00;;;;;7.93;77.28;99120.25;4879352;29;45350;-60
2022/11/23 05:11:14;;;;;;;;;8.25;7.25;;;;;7.89;77.96;99116.34;4862653;29;45453;-60
2022/11/23 05:13:39;;;;;;;;;7.50;7.50;;;;;7.91;77.46;99114.19;4879804;29;45397;-60
2022/11/23 05:16:05;;;;;;;;;8.25;7.25;;;;;7.93;78.21;99112.06;4862378;29;46869;-60
2022/11/23 05:18:30;;;;;;;;;8.25;6.50;;;;;7.73;78.13;99069.50;4879700;29;45383;-61
2022/11/23 05:20:56;;;;;;;;;8.25;7.00;;;;;7.22;78.05;98984.38;4862144;29;45414;-61
2022/11/23 05:23:21;;;;;;;;;4.25;4.25;;;;;8.04;77.62;99115.88;4879777;29;45252;-60
2022/11/23 05:25:47;;;;;;;;;7.00;6.00;;;;;8.09;77.75;99126.94;4914393;28;46495;-60
2022/11/23 05:28:17;;;;;;;;;11.25;6.00;;;;;8.10;77.59;99121.25;4900132;28;46435;-61
2022/11/23 05:30:43;;;;;;;;;7.00;7.00;;;;;8.07;78.18;99120.88;4900336;28;45439;-61
2022/11/23 05:33:08;;;;;;;;;7.25;7.25;;;;;7.72;77.77;99059.63;4917150;28;45446;-60
2022/11/23 05:35:34;;;;;;;;;6.00;6.00;;;;;8.08;78.48;99125.28;4916860;28;46048;-61
2022/11/23 05:38:00;;;;;;;;;9.00;7.00;;;;;8.09;77.46;99129.66;4878144;28;46043;-59
2022/11/23 05:40:25;;;;;;;;;9.75;7.25;;;;;7.89;78.11;99089.84;4899596;28;45495;-60
2022/11/23 05:42:55;;;;;;;;;6.75;6.50;;;;;8.14;77.92;99125.19;4917208;28;45236;-61
2022/11/23 05:45:21;;;;;;;;;8.80;4.80;;;;;8.18;77.89;99128.28;4916152;28;46900;-60
2022/11/23 05:47:50;;;;;;;;;9.40;7.20;;;;;8.21;78.12;99125.03;4916766;28;45410;-61
2022/11/23 05:50:16;;;;;;;;;8.40;5.60;;;;;8.25;77.56;99120.78;4916506;28;45353;-60
2022/11/23 05:52:41;;;;;;;;;5.00;4.50;;;;;8.24;77.73;99121.00;4917056;28;45259;-60
2022/11/23 05:55:07;;;;;;;;;9.50;5.75;;;;;7.93;78.53;99071.91;4919909;28;45618;-60
2022/11/23 05:57:32;;;;;;;;;8.00;8.00;;;;;8.21;78.74;99116.84;4919743;28;45357;-60
2022/11/23 05:59:58;;;;;;;;;6.00;6.00;;;;;8.16;77.92;99102.25;4920117;28;45295;-60
2022/11/23 06:02:23;;;;;;;;;9.00;6.75;;;;;8.22;78.45;99113.03;4920017;28;45342;-62
2022/11/23 06:04:49;;;;;;;;;8.50;8.50;;;;;8.15;78.51;99098.66;4919896;28;46456;-60
2022/11/23 06:07:14;;;;;;;;;8.50;7.50;;;;;8.19;78.31;99113.53;4919516;28;45329;-61
2022/11/23 06:09:40;;;;;;;;;10.75;8.00;;;;;8.20;78.30;99111.63;4919719;28;45379;-62
2022/11/23 06:12:05;;;;;;;;;7.75;7.75;;;;;8.21;78.82;99105.91;4920226;28;45228;-61
2022/11/23 06:14:31;;;;;;;;;14.50;8.50;;;;;8.21;78.80;99107.84;4902261;28;47942;-63
2022/11/23 06:16:56;;;;;;;;;6.50;6.50;;;;;8.23;78.27;99111.97;4903034;28;45400;-61
2022/11/23 06:19:22;;;;;;;;;11.00;8.00;;;;;8.21;78.54;99113.31;4919357;28;45901;-62
2022/11/23 06:21:47;;;;;;;;;10.50;6.00;;;;;8.16;79.07;99111.25;4919939;28;45323;-60
2022/11/23 06:24:13;;;;;;;;;7.75;7.00;;;;;8.18;78.73;99103.66;4913997;28;47189;-59
2022/11/23 06:26:38;;;;;;;;;12.25;9.00;;;;;8.19;79.35;99104.47;4900280;28;45310;-62
2022/11/23 06:29:04;;;;;;;;;13.75;8.25;;;;;7.97;78.93;99067.66;4900936;29;45339;-62
2022/11/23 06:31:30;;;;;;;;;11.75;8.50;;;;;8.19;78.63;99093.56;4900335;28;45824;-61
2022/11/23 06:33:56;;;;;;;;;5.75;5.75;;;;;8.19;78.47;99102.59;4883187;29;48330;-61
2022/11/23 06:36:21;;;;;;;;;12.75;8.75;;;;;8.24;78.35;99093.69;4883300;29;45568;-62
2022/11/23 06:38:47;;;;;;;;;5.50;5.25;;;;;7.80;78.72;99014.78;4876540;28;45291;-61
2022/11/23 06:41:12;;;;;;;;;6.00;6.00;;;;;8.06;79.07;99050.91;4919698;28;45539;-61
2022/11/23 06:43:38;;;;;;;;;6.25;4.00;;;;;8.24;78.65;99086.31;4919256;28;45850;-61
2022/11/23 06:46:05;;;;;;;;;6.00;6.00;;;;;8.24;78.77;99074.56;4919481;28;45322;-61
2022/11/23 06:48:30;;;;;;;;;4.00;1.80;;;;;8.14;79.07;99045.06;4919358;28;45394;-61
2022/11/23 06:50:59;;;;;;;;;9.00;7.25;;;;;8.26;78.57;99072.41;4919744;28;45466;-61
2022/11/23 06:53:25;;;;;;;;;5.80;5.80;;;;;8.30;78.69;99070.88;4902190;28;45451;-61
2022/11/23 06:55:51;;;;;;;;;2.80;2.00;;;;;8.37;79.18;99070.72;4919568;28;45407;-63
2022/11/23 06:58:23;;;;;;;;;6.25;6.00;;;;;8.39;78.11;99063.94;4920013;28;45277;-62
2022/11/23 07:00:48;;;;;;;;;7.60;7.40;;;;;8.43;78.55;99047.91;4885546;28;45354;-60
2022/11/23 07:03:22;;;;;;;;;7.50;6.50;;;;;8.43;77.87;99049.81;4919188;28;46406;-63
2022/11/23 07:05:47;;;;;;;;;3.20;3.20;;;;;8.45;78.00;99050.41;4918472;28;45430;-62
2022/11/23 07:08:13;;;;;;;;;11.25;6.50;;;;;8.41;77.31;99044.59;4902474;28;45740;-61
2022/11/23 07:10:38;;;;;;;;;3.00;3.00;;;;;8.29;77.99;99039.13;4902578;28;45400;-61
2022/11/23 07:13:04;;;;;;;;;7.50;7.00;;;;;8.36;78.09;99042.56;4919687;28;45781;-61
2022/11/23 07:15:30;;;;;;;;;6.00;3.75;;;;;8.43;77.23;99053.38;4919080;28;45474;-62
2022/11/23 07:17:56;;;;;;;;;5.00;5.00;;;;;8.44;78.13;99054.22;4919653;28;45330;-62
2022/11/23 07:20:21;;;;;;;;;5.00;5.00;;;;;8.44;78.28;99048.75;4901930;28;45347;-61
2022/11/23 07:22:47;;;;;;;;;6.50;6.50;;;;;8.45;77.93;99047.66;4901772;28;46192;-61
2022/11/23 07:25:17;;;;;;;;;6.75;5.50;;;;;8.47;77.92;99057.31;4906791;28;45472;-60
2022/11/23 07:27:43;;;;;;;;;6.00;4.00;;;;;8.43;77.71;99053.38;4883778;29;45499;-61
2022/11/23 07:30:09;;;;;;;;;3.25;3.25;;;;;8.45;76.87;99053.13;4900557;29;45670;-60
2022/11/23 07:32:34;;;;;;;;;4.00;4.00;;;;;8.37;76.81;99048.84;4899551;28;46175;-60
2022/11/23 07:35:00;;;;;;;;;6.00;6.00;;;;;8.31;76.37;99052.56;4899871;29;45835;-60
2022/11/23 07:37:26;;;;;;;;;2.75;2.75;;;;;8.37;76.25;99060.63;4899512;29;45486;-60
2022/11/23 07:39:52;;;;;;;;;2.75;2.75;;;;;8.33;75.15;99061.38;4870680;28;45475;-61
2022/11/23 07:42:18;;;;;;;;;3.75;3.75;;;;;8.20;75.76;99035.09;4866835;29;45316;-61
2022/11/23 07:44:44;;;;;;;;;3.40;3.00;;;;;8.37;75.46;99068.00;4898964;29;45353;-60
2022/11/23 07:47:10;;;;;;;;;7.75;6.00;;;;;8.33;75.91;99075.84;4899198;29;45325;-61
2022/11/23 07:49:35;;;;;;;;;4.50;4.50;;;;;8.36;76.46;99071.81;4899782;29;45228;-62
2022/11/23 07:52:01;;;;;;;;;4.75;4.00;;;;;8.12;76.71;99033.56;4865997;29;45638;-62
2022/11/23 07:54:26;;;;;;;;;2.75;2.00;;;;;8.33;76.54;99053.97;4899357;29;45462;-60
2022/11/23 07:56:52;;;;;;;;;4.50;4.00;;;;;8.38;76.18;99056.00;4899055;29;45442;-62
2022/11/23 07:59:17;;;;;;;;;9.50;4.00;;;;;8.32;76.97;99057.78;4899256;29;45518;-59
2022/11/23 08:01:43;;;;;;;;;4.50;4.50;;;;;8.33;76.91;99069.56;4899017;29;45454;-61
2022/11/23 08:04:08;;;;;;;;;6.00;4.00;;;;;8.30;77.57;99070.88;4898722;29;45803;-61
2022/11/23 08:06:34;;;;;;;;;4.50;3.75;;;;;8.30;76.60;99070.88;4899040;29;45406;-64
2022/11/23 08:08:59;;;;;;;;;2.50;2.25;;;;;8.27;76.74;99068.59;4899027;29;45385;-61
2022/11/23 08:11:25;;;;;;;;;3.00;3.00;;;;;8.23;78.02;99064.69;4898903;28;45749;-62
2022/11/23 08:13:50;;;;;;;;;6.00;3.00;;;;;8.17;77.79;99065.63;4898739;29;45406;-60
2022/11/23 08:16:17;;;;;;;;;3.00;3.00;;;;;8.12;78.14;99063.63;4881496;29;45360;-61
2022/11/23 08:18:43;;;;;;;;;4.00;2.80;;;;;8.13;78.24;99060.63;4899139;29;45201;-60
2022/11/23 08:21:08;;;;;;;;;3.00;3.00;;;;;7.48;77.82;98952.28;4898446;29;45317;-58
2022/11/23 08:23:34;;;;;;;;;6.00;4.25;;;;;7.88;78.52;99021.81;4895115;28;45176;-59
2022/11/23 08:26:02;;;;;;;;;8.50;2.50;;;;;8.09;78.14;99044.94;4892578;28;45438;-60
2022/11/23 08:28:27;;;;;;;;;3.80;3.40;;;;;7.60;79.14;98958.59;4916060;28;45759;-60
2022/11/23 08:30:53;;;;;;;;;7.25;4.50;;;;;8.19;79.00;99041.63;4897151;29;46136;-61
2022/11/23 08:33:18;;;;;;;;;4.00;4.00;;;;;8.14;78.42;99034.16;4895841;28;45588;-59
2022/11/23 08:35:44;;;;;;;;;8.00;6.00;;;;;8.25;78.74;99025.13;4900173;28;45493;-56
2022/11/23 08:38:10;;;;;;;;;4.50;4.50;;;;;8.32;77.73;99026.91;4899052;28;45416;-60
2022/11/23 08:40:35;;;;;;;;;6.75;6.25;;;;;8.36;77.68;99012.50;4876809;28;45647;-58
2022/11/23 08:43:01;;;;;;;;;5.25;3.75;;;;;8.39;77.33;99005.72;4916274;28;45338;-60
2022/11/23 08:45:27;;;;;;;;;2.75;2.75;;;;;8.38;77.09;98998.59;4899780;28;45447;-60
2022/11/23 08:47:53;;;;;;;;;3.25;3.00;;;;;8.35;77.92;98975.31;4897308;29;45325;-58
2022/11/23 08:50:18;;;;;;;;;2.60;2.60;;;;;8.21;78.04;98943.84;4879525;29;46465;-59
2022/11/23 08:52:44;;;;;;;;;3.50;2.00;;;;;8.41;77.31;98977.09;4893623;28;45726;-61
2022/11/23 08:55:10;;;;;;;;;3.25;2.75;;;;;8.30;77.70;98956.06;4876749;29;45488;-60
2022/11/23 08:57:35;;;;;;;;;3.00;3.00;;;;;8.33;77.72;98971.16;4862596;29;45580;-60
2022/11/23 09:00:02;;;;;;;;;7.50;3.50;;;;;8.38;78.63;98990.41;4878057;29;47195;-61
2022/11/23 09:02:28;;;;;;;;;6.00;2.80;;;;;8.43;78.22;98981.47;4895178;29;45498;-59
2022/11/23 09:04:53;;;;;;;;;3.75;2.25;;;;;8.43;77.10;98978.75;4895356;29;45796;-59
2022/11/23 09:07:19;;;;;;;;;2.50;1.25;;;;;8.43;77.75;98979.56;4895550;29;45470;-59
2022/11/23 09:09:44;;;;;;;;;3.00;2.00;;;;;8.25;78.06;98942.28;4894695;28;45478;-56
2022/11/23 09:12:10;;;;;;;;;2.75;2.00;;;;;8.39;77.81;98951.06;4896387;29;45356;-55
2022/11/23 09:14:35;;;;;;;;;2.00;2.00;;;;;8.51;78.02;98960.09;4895318;29;45531;-55
2022/11/23 09:17:01;;;;;;;;;4.50;3.00;;;;;8.50;77.90;98950.16;4896381;29;45460;-58
2022/11/23 09:19:27;;;;;;;;;3.50;2.00;;;;;8.49;78.70;98953.16;4863483;29;45620;-56
2022/11/23 09:21:53;;;;;;;;;3.25;3.25;;;;;8.49;78.46;98947.69;4895940;28;45390;-56
2022/11/23 09:24:18;;;;;;;;;2.00;2.00;;;;;8.51;78.68;98959.22;4891223;28;45609;-58
2022/11/23 09:26:44;;;;;;;;;2.25;2.25;;;;;8.47;79.11;98955.28;4915976;28;45573;-57
2022/11/23 09:29:09;;;;;;;;;2.00;2.00;;;;;8.52;78.82;98948.06;4892537;28;46480;-56
2022/11/23 09:31:35;;;;;;;;;1.75;1.75;;;;;8.23;78.87;98906.97;4882473;29;45469;-57
2022/11/23 09:34:01;;;;;;;;;3.00;3.00;;;;;8.43;79.68;98935.81;4888741;28;45338;-59
2022/11/23 09:36:27;;;;;;;;;2.00;1.60;;;;;8.52;79.75;98948.06;4899338;29;45524;-58
2022/11/23 09:38:52;;;;;;;;;3.60;2.60;;;;;8.51;79.43;98940.94;4898907;28;45483;-61
2022/11/23 09:41:59;;;;;;;;;2.00;2.00;;;;;8.47;80.01;98931.53;4889696;28;45814;-61
2022/11/23 09:44:51;;;;;;;;;1.40;1.40;;;;;8.56;80.03;98925.69;4884422;28;45437;-60
2022/11/23 09:47:28;;;;;;;;;2.00;2.00;;;;;8.35;80.35;98906.97;4884181;29;45598;-55
2022/11/23 09:50:12;;;;;;;;;2.00;1.60;;;;;8.56;79.53;98929.28;4882979;29;46497;-61
2022/11/23 09:52:41;;;;;;;;;3.20;3.20;;;;;8.54;80.94;98934.97;4883278;29;45551;-61
2022/11/23 09:55:17;;;;;;;;;2.20;2.00;;;;;8.54;80.43;98924.03;4882888;29;45455;-56
2022/11/23 09:57:42;;;;;;;;;3.40;2.00;;;;;8.51;81.04;98913.59;4867094;29;45454;-59
2022/11/23 10:00:21;;;;;;;;;3.50;1.50;;;;;8.47;80.90;98917.00;4899615;29;45381;-59
2022/11/23 10:02:47;;;;;;;;;3.20;2.00;;;;;8.43;80.55;98908.47;4899493;28;45541;-56
2022/11/23 10:05:24;;;;;;;;;2.50;2.50;;;;;8.49;81.66;98915.69;4882199;29;45385;-60
2022/11/23 10:08:11;;;;;;;;;2.00;2.00;;;;;8.49;82.24;98917.63;4899328;29;45491;-54
2022/11/23 10:10:57;;;;;;;;;2.40;2.40;;;;;8.48;81.78;98924.97;4898580;28;45841;-58
2022/11/23 10:13:27;;;;;;;;;3.20;2.00;;;;;8.32;81.93;98891.03;4898677;28;45434;-58
2022/11/23 10:16:12;;;;;;;;;0.00;0.00;;;;;8.46;82.19;98910.72;4883056;29;45948;-59
2022/11/23 10:18:53;;;;;;;;;3.00;3.00;;;;;8.19;82.46;98883.13;4899631;29;45407;-60
2022/11/23 10:21:29;;;;;;;;;2.20;2.20;;;;;8.39;83.84;98953.78;4902488;28;45463;-60
2022/11/23 10:23:55;;;;;;;;;2.40;1.80;;;;;8.41;83.11;98936.06;4890591;28;45641;-58
2022/11/23 10:26:30;;;;;;;;;4.40;4.40;;;;;8.44;83.30;98945.69;4913288;28;45400;-58
2022/11/23 10:28:56;;;;;;;;;2.40;2.40;;;;;8.44;83.55;98947.59;4894716;29;45889;-60
2022/11/23 10:31:22;;;;;;;;;4.50;3.75;;;;;8.27;84.08;98912.78;4898879;28;46558;-60
2022/11/23 10:34:10;;;;;;;;;7.00;2.20;;;;;8.23;83.78;98917.09;4866796;29;46285;-58
2022/11/23 10:36:37;;;;;;;;;2.80;2.80;;;;;8.44;83.43;98948.44;4879555;28;45436;-60
2022/11/23 10:39:22;;;;;;;;;3.20;2.20;;;;;8.44;84.10;98945.69;4897998;28;45748;-60
2022/11/23 10:41:48;;;;;;;;;3.00;3.00;;;;;8.39;84.37;98940.94;4867122;28;45894;-58
2022/11/23 10:44:21;;;;;;;;;2.20;2.20;;;;;8.44;83.89;98942.13;4880373;29;45290;-59
2022/11/23 10:46:46;;;;;;;;;2.20;2.20;;;;;8.56;83.28;98963.97;4880339;29;45390;-57
2022/11/23 10:49:17;;;;;;;;;3.00;2.00;;;;;8.65;84.03;98976.22;4897724;29;45532;-55
2022/11/23 10:52:05;;;;;;;;;3.60;2.80;;;;;8.74;83.33;98977.47;4881163;29;45494;-61
2022/11/23 10:54:35;;;;;;;;;2.00;2.00;;;;;8.73;83.42;98953.09;4881007;29;45482;-63
2022/11/23 10:57:19;;;;;;;;;3.60;1.80;;;;;8.84;83.50;98967.81;4882578;29;45344;-59
2022/11/23 10:59:55;;;;;;;;;2.00;2.00;;;;;8.89;83.31;98973.38;4897684;29;45679;-61
2022/11/23 11:02:20;;;;;;;;;2.20;2.20;;;;;8.95;82.84;98975.13;4881940;29;46756;-62
2022/11/23 11:04:47;;;;;;;;;6.25;2.50;;;;;8.98;82.58;98979.31;4897440;29;45766;-60
2022/11/23 11:07:23;;;;;;;;;4.60;3.00;;;;;9.03;82.90;98971.19;4880042;29;45579;-61
2022/11/23 11:09:56;;;;;;;;;2.80;2.00;;;;;9.14;82.74;98970.31;4896723;28;45509;-58
2022/11/23 11:12:22;;;;;;;;;2.40;2.40;;;;;9.17;81.72;98980.75;4891569;28;45569;-61
2022/11/23 11:14:55;;;;;;;;;2.75;2.75;;;;;9.26;82.98;98983.09;4900949;28;45435;-59
2022/11/23 11:17:27;;;;;;;;;4.40;3.20;;;;;9.25;82.00;98982.28;4897228;29;45459;-61
2022/11/23 11:19:54;;;;;;;;;7.40;4.00;;;;;9.36;82.00;98995.03;4897550;28;45743;-61
2022/11/23 11:22:34;;;;;;;;;3.00;3.00;;;;;9.17;82.31;98947.06;4879199;29;48255;-53
2022/11/23 11:25:02;;;;;;;;;2.20;2.20;;;;;9.44;82.15;98993.81;4871155;28;46871;-58
2022/11/23 11:27:28;;;;;;;;;5.60;3.00;;;;;9.52;82.16;98989.00;4916641;28;45463;-57
2022/11/23 11:29:56;;;;;;;;;3.60;3.00;;;;;9.63;82.17;99004.53;4874255;28;46076;-57
2022/11/23 11:32:36;;;;;;;;;2.80;2.80;;;;;9.70;82.14;98998.88;4877110;29;46780;-56
2022/11/23 11:35:27;;;;;;;;;3.00;3.00;;;;;9.89;82.71;99013.19;4865214;29;45341;-59
2022/11/23 11:38:32;;;;;;;;;4.00;3.00;;;;;9.92;82.63;99009.13;4880122;29;45487;-62
2022/11/23 11:40:59;;;;;;;;;3.00;3.00;;;;;10.05;82.15;99014.25;4878281;29;45624;-60
2022/11/23 11:43:43;;;;;;;;;2.20;2.20;;;;;10.01;81.76;98989.25;4853943;28;46311;-62